Pagrindinis puslapis
METAR-TAF:

METAR-TAF

Oro uostai :

Tabas, Iranas

platuma: 33-36N, ilguma: 056-55E, Aukštis: 710 m

Dabartinis oras

Ataskaita buvo paskelbta 19 valandos ir 27 minutes, ne 08:00 UTC
Vėjas 2 kt iš Pietryčių
Temperatūra 19°C
Drėgmė 30%
Slėgis 1020 hPa
Matomumas 10 km arba daugiau
nėra debesų žemiau 1500 m ir nėra kamuolinių lietaus debesų

METAR: OIMT 300800Z 13002KT CAVOK 19/01 Q1020

Laikas: 06:57 (03:27 UTC)


TAF: trūkstamas

Orai ataskaitas ir orų prognozės (METAR, TAF).

turimą stotys yra geltonos ir raudonos taškus žemėlapyje.

Perkelti pele per norėdami pamatyti stoties vardą.

Tada spustelėkite, norėdami matyti oro stebėjimo ir prognozės.

Norėdami pakeisti žemėlapį: spustelėkite ant žalios mygtukų su juodo kryžiaus žemyn,; žalią mygtuką su brūkšneliu, jei norite nutolinti; arba žalių rodyklių gretimoms žemėlapius.


METAR-TAF: